Layer de la Haye, United Kingdom
Current Conditions -  °F | °C
As of 2:50 PM on Monday 24 Nov 2014 (Local Time) from EGUW Reporting Station
Clear Clear  
Wind Chill: 44°   Ceiling: Unl
Heat Index: 46°   Visibility: 6mi
Dew Point: 41°   Wind: 6mph
Humidity: 81%   Direction: 290°WNW
Pressure: 30.3"   Gusts: NA
Location:  51.85°N, 0.86°E
Report Text: EGUW 241450Z 29005KT CAVOK 08/05 Q1026 BLU NOSIG
Loading
Personal Weather Stations






























Interactive Weather Map New forecast layout! Learn more

10-Day Weather Forecast

Advertisements
Track Severe Weather on mobile